createdAt,value
2022-09-17T00:01:19.153Z,100637.19
2022-09-17T00:04:16.750Z,100641.72
2022-09-17T00:07:13.770Z,100644.56
2022-09-17T00:10:10.866Z,100643.63
2022-09-17T00:13:08.074Z,100642.19
2022-09-17T00:16:05.077Z,100645.63
2022-09-17T00:19:02.976Z,100639.03
2022-09-17T00:21:59.905Z,100643.75
2022-09-17T00:24:56.687Z,100642.13
2022-09-17T00:27:53.619Z,100635.22
2022-09-17T00:30:50.495Z,100644.25
2022-09-17T00:33:47.932Z,100652.31
2022-09-17T00:36:45.072Z,100664.47
2022-09-17T00:39:41.887Z,100656.53
2022-09-17T00:42:38.841Z,100659.09
2022-09-17T00:45:35.829Z,100659.22
2022-09-17T00:48:32.571Z,100668.19
2022-09-17T00:51:38.010Z,100669.94
2022-09-17T00:54:35.762Z,100658.84
2022-09-17T00:57:32.792Z,100656.16
2022-09-17T01:00:30.913Z,100663.59
2022-09-17T01:03:28.163Z,100670.66
2022-09-17T01:06:57.425Z,100669.84
2022-09-17T01:10:14.692Z,100665.38
2022-09-17T01:13:19.582Z,100667.81
2022-09-17T01:16:21.018Z,100664.13
2022-09-17T01:19:43.282Z,100650.09
2022-09-17T01:22:43.730Z,100654.09
2022-09-17T01:25:55.778Z,100650.09
2022-09-17T01:28:55.750Z,100655.84
2022-09-17T01:31:58.812Z,100656.53
2022-09-17T01:35:09.962Z,100664.22
2022-09-17T01:38:23.645Z,100653.34
2022-09-17T01:41:42.104Z,100664.38
2022-09-17T01:45:01.921Z,100666.56
2022-09-17T01:48:03.530Z,100667.84
2022-09-17T01:51:07.965Z,100660.09
2022-09-17T01:54:21.540Z,100668.06
2022-09-17T01:57:34.071Z,100667.84
2022-09-17T02:00:31.130Z,100671.47
2022-09-17T02:03:42.621Z,100674.13
2022-09-17T02:06:41.824Z,100676.56
2022-09-17T02:09:42.277Z,100670.34
2022-09-17T02:12:43.145Z,100667.06
2022-09-17T02:15:52.433Z,100667.81
2022-09-17T02:18:53.387Z,100673.72
2022-09-17T02:22:03.177Z,100672.25
2022-09-17T02:25:11.733Z,100659.75
2022-09-17T02:28:14.097Z,100675.50
2022-09-17T02:31:11.243Z,100663.97
2022-09-17T02:34:09.199Z,100674.13
2022-09-17T02:37:06.172Z,100675.41
2022-09-17T02:40:03.833Z,100667.81
2022-09-17T02:43:33.671Z,100675.63
2022-09-17T02:46:55.507Z,100672.28
2022-09-17T02:50:14.918Z,100665.72
2022-09-17T02:53:11.869Z,100675.56
2022-09-17T02:56:23.933Z,100676.22
2022-09-17T02:59:31.611Z,100677.63
2022-09-17T03:02:32.426Z,100679.97
2022-09-17T03:05:29.905Z,100670.94
2022-09-17T03:08:32.662Z,100674.44
2022-09-17T03:11:29.595Z,100677.25
2022-09-17T03:14:27.009Z,100672.47
2022-09-17T03:17:23.924Z,100684.41
2022-09-17T03:20:20.707Z,100681.16
2022-09-17T03:23:18.057Z,100679.09
2022-09-17T03:26:15.046Z,100672.59
2022-09-17T03:29:11.898Z,100670.69
2022-09-17T03:32:08.826Z,100672.00
2022-09-17T03:35:06.027Z,100682.50
2022-09-17T03:38:02.891Z,100685.53
2022-09-17T03:41:05.227Z,100685.53
2022-09-17T03:44:01.897Z,100680.75
2022-09-17T03:46:59.240Z,100675.66
2022-09-17T03:49:56.063Z,100675.38
2022-09-17T03:52:52.933Z,100688.78
2022-09-17T03:55:50.266Z,100686.50
2022-09-17T03:58:47.097Z,100687.78
2022-09-17T04:01:44.131Z,100688.91
2022-09-17T04:04:40.909Z,100688.72
2022-09-17T04:07:39.801Z,100683.06
2022-09-17T04:10:37.109Z,100681.94
2022-09-17T04:13:33.893Z,100687.69
2022-09-17T04:16:31.073Z,100691.97
2022-09-17T04:19:28.014Z,100702.38
2022-09-17T04:22:25.767Z,100694.53
2022-09-17T04:25:22.960Z,100695.50
2022-09-17T04:28:19.762Z,100688.16
2022-09-17T04:31:17.293Z,100687.44
2022-09-17T04:34:14.764Z,100692.22
2022-09-17T04:37:11.738Z,100692.41
2022-09-17T04:40:09.514Z,100696.34
2022-09-17T04:43:07.129Z,100694.34
2022-09-17T04:46:04.247Z,100694.06
2022-09-17T04:49:01.263Z,100695.88
2022-09-17T04:51:58.061Z,100692.31
2022-09-17T04:54:54.870Z,100693.97
2022-09-17T04:57:52.813Z,100703.47
2022-09-17T05:00:50.143Z,100701.41
2022-09-17T05:03:47.267Z,100697.78
2022-09-17T05:06:44.120Z,100705.69
2022-09-17T05:09:41.659Z,100704.28
2022-09-17T05:12:39.189Z,100712.81
2022-09-17T05:15:38.689Z,100706.09
2022-09-17T05:18:36.022Z,100708.84
2022-09-17T05:21:33.131Z,100709.63
2022-09-17T05:24:30.151Z,100725.94
2022-09-17T05:27:27.105Z,100721.19
2022-09-17T05:30:24.181Z,100718.47
2022-09-17T05:33:21.246Z,100720.59
2022-09-17T05:36:17.878Z,100722.47
2022-09-17T05:39:15.358Z,100715.91
2022-09-17T05:42:12.132Z,100726.47
2022-09-17T05:45:09.441Z,100730.63
2022-09-17T05:48:13.700Z,100729.63
2022-09-17T05:51:11.723Z,100733.06
2022-09-17T05:54:09.217Z,100736.56
2022-09-17T05:57:06.359Z,100746.97
2022-09-17T06:00:03.945Z,100741.22
2022-09-17T06:03:13.791Z,100744.41
2022-09-17T06:06:11.384Z,100751.38
2022-09-17T06:09:08.891Z,100748.06
2022-09-17T06:12:06.405Z,100757.78
2022-09-17T06:15:04.261Z,100761.72
2022-09-17T06:18:00.970Z,100761.09
2022-09-17T06:21:02.198Z,100759.56
2022-09-17T06:23:58.844Z,100767.03
2022-09-17T06:26:56.279Z,100757.16
2022-09-17T06:29:53.415Z,100763.72
2022-09-17T06:32:50.151Z,100762.47
2022-09-17T06:35:47.385Z,100758.72
2022-09-17T06:38:45.499Z,100773.78
2022-09-17T06:41:43.453Z,100778.34
2022-09-17T06:44:41.105Z,100796.41
2022-09-17T06:47:37.841Z,100789.50
2022-09-17T06:50:37.320Z,100791.50
2022-09-17T06:53:38.325Z,100783.31
2022-09-17T06:56:34.960Z,100782.94
2022-09-17T06:59:31.982Z,100778.84
2022-09-17T07:02:28.974Z,100773.00
2022-09-17T07:05:26.485Z,100772.72
2022-09-17T07:08:24.321Z,100769.53
2022-09-17T07:11:20.959Z,100771.63
2022-09-17T07:14:19.227Z,100771.72
2022-09-17T07:17:16.249Z,100774.63
2022-09-17T07:20:13.549Z,100778.66
2022-09-17T07:23:11.070Z,100783.97
2022-09-17T07:26:12.356Z,100776.81
2022-09-17T07:29:09.206Z,100768.59
2022-09-17T07:32:05.971Z,100771.16
2022-09-17T07:35:03.718Z,100784.19
2022-09-17T07:38:01.058Z,100782.34
2022-09-17T07:40:59.918Z,100782.53
2022-09-17T07:43:57.137Z,100773.03
2022-09-17T07:46:54.260Z,100776.75
2022-09-17T07:49:51.122Z,100783.09
2022-09-17T07:52:48.385Z,100787.34
2022-09-17T07:55:58.650Z,100784.66
2022-09-17T07:58:56.526Z,100778.94
2022-09-17T08:01:53.950Z,100787.28
2022-09-17T08:04:51.177Z,100777.06
2022-09-17T08:07:51.781Z,100785.72
2022-09-17T08:10:49.029Z,100782.88
2022-09-17T08:13:49.579Z,100765.00
2022-09-17T08:16:47.497Z,100769.03
2022-09-17T08:19:45.207Z,100758.06
2022-09-17T08:22:44.764Z,100755.69
2022-09-17T08:25:44.342Z,100749.78
2022-09-17T08:28:43.988Z,100759.91
2022-09-17T08:31:41.205Z,100753.13
2022-09-17T08:34:38.460Z,100764.09
2022-09-17T08:37:35.180Z,100746.81
2022-09-17T08:40:32.019Z,100764.00
2022-09-17T08:43:29.252Z,100754.22
2022-09-17T08:46:26.266Z,100764.63
2022-09-17T08:49:34.144Z,100767.28
2022-09-17T08:52:40.744Z,100763.00
2022-09-17T08:55:46.165Z,100765.38
2022-09-17T08:58:55.392Z,100777.94
2022-09-17T09:01:52.394Z,100779.94
2022-09-17T09:05:02.851Z,100789.97
2022-09-17T09:08:08.567Z,100787.97
2022-09-17T09:11:17.576Z,100793.66
2022-09-17T09:15:02.814Z,100788.44
2022-09-17T09:18:10.388Z,100788.13
2022-09-17T09:21:18.914Z,100779.63
2022-09-17T09:24:23.630Z,100776.91
2022-09-17T09:27:35.981Z,100776.47
2022-09-17T09:30:52.785Z,100775.31
2022-09-17T09:33:50.065Z,100765.59
2022-09-17T09:36:47.186Z,100775.63
2022-09-17T09:39:46.039Z,100774.78
2022-09-17T09:42:43.481Z,100770.09
2022-09-17T09:45:45.012Z,100776.16
2022-09-17T09:49:10.192Z,100782.38
2022-09-17T09:52:12.885Z,100782.91
2022-09-17T09:55:22.234Z,100785.84
2022-09-17T09:58:38.498Z,100784.56
2022-09-17T10:01:37.249Z,100775.44
2022-09-17T10:04:34.232Z,100779.56
2022-09-17T10:07:31.208Z,100787.63
2022-09-17T10:10:28.020Z,100781.84
2022-09-17T10:13:25.715Z,100774.97
2022-09-17T10:16:25.470Z,100770.50
2022-09-17T10:19:25.613Z,100785.38
2022-09-17T10:22:24.995Z,100766.53
2022-09-17T10:25:31.871Z,100755.66
2022-09-17T10:28:44.860Z,100752.34
2022-09-17T10:31:49.211Z,100747.69
2022-09-17T10:35:14.758Z,100771.16
2022-09-17T10:38:28.306Z,100747.78
2022-09-17T10:41:25.713Z,100756.56
2022-09-17T10:44:24.274Z,100749.81
2022-09-17T10:47:31.164Z,100767.25
2022-09-17T10:50:35.456Z,100771.00
2022-09-17T10:53:32.456Z,100766.44
2022-09-17T10:56:36.403Z,100755.22
2022-09-17T11:00:09.818Z,100763.38
2022-09-17T11:03:25.690Z,100771.34
2022-09-17T11:07:04.327Z,100760.28
2022-09-17T11:10:51.962Z,100762.16
2022-09-17T11:14:00.863Z,100768.94
2022-09-17T11:17:40.600Z,100748.25
2022-09-17T11:20:58.767Z,100739.94
2022-09-17T11:23:56.078Z,100735.16
2022-09-17T11:27:20.751Z,100731.06
2022-09-17T11:30:20.026Z,100732.34
2022-09-17T11:33:17.280Z,100728.28
2022-09-17T11:36:18.045Z,100738.75
2022-09-17T11:39:18.832Z,100722.59
2022-09-17T11:42:21.244Z,100739.88
2022-09-17T11:45:20.469Z,100743.41
2022-09-17T11:48:19.642Z,100742.47
2022-09-17T11:51:32.307Z,100730.31
2022-09-17T11:54:52.603Z,100728.44
2022-09-17T11:57:54.289Z,100722.16
2022-09-17T12:00:54.379Z,100729.69
2022-09-17T12:03:56.107Z,100725.13
2022-09-17T12:06:57.252Z,100749.63
2022-09-17T12:09:58.748Z,100743.75
2022-09-17T12:12:59.199Z,100740.34
2022-09-17T12:16:22.123Z,100734.91
2022-09-17T12:19:30.237Z,100730.94
2022-09-17T12:22:30.261Z,100722.31
2022-09-17T12:25:28.299Z,100725.69
2022-09-17T12:28:32.687Z,100711.66
2022-09-17T12:31:46.570Z,100720.44
2022-09-17T12:34:55.351Z,100722.19
2022-09-17T12:38:19.885Z,100713.31
2022-09-17T12:41:29.498Z,100706.00
2022-09-17T12:44:42.510Z,100696.91
2022-09-17T12:47:48.575Z,100696.72
2022-09-17T12:51:03.451Z,100705.78
2022-09-17T12:54:34.158Z,100703.28
2022-09-17T12:57:56.079Z,100686.31
2022-09-17T13:01:00.408Z,100696.78
2022-09-17T13:04:04.502Z,100706.75
2022-09-17T13:07:05.016Z,100696.81
2022-09-17T13:10:14.313Z,100690.06
2022-09-17T13:13:11.312Z,100682.13
2022-09-17T13:16:20.707Z,100682.94
2022-09-17T13:19:26.705Z,100699.50
2022-09-17T13:22:27.772Z,100703.66
2022-09-17T13:25:27.113Z,100702.53
2022-09-17T13:28:24.519Z,100685.38
2022-09-17T13:31:22.984Z,100694.97
2022-09-17T13:34:20.378Z,100679.31
2022-09-17T13:37:20.534Z,100691.91
2022-09-17T13:40:22.579Z,100686.53
2022-09-17T13:43:21.064Z,100690.06
2022-09-17T13:46:24.402Z,100679.69
2022-09-17T13:49:21.974Z,100683.97
2022-09-17T13:52:33.862Z,100683.59
2022-09-17T13:55:38.495Z,100681.59
2022-09-17T13:58:35.809Z,100677.69
2022-09-17T14:01:56.489Z,100683.28
2022-09-17T14:04:57.355Z,100705.63
2022-09-17T14:08:11.945Z,100704.59
2022-09-17T14:11:26.643Z,100698.34
2022-09-17T14:14:40.777Z,100694.31
2022-09-17T14:17:53.629Z,100691.50
2022-09-17T14:20:50.745Z,100706.97
2022-09-17T14:23:50.752Z,100697.28
2022-09-17T14:27:15.330Z,100700.59
2022-09-17T14:30:19.175Z,100694.63
2022-09-17T14:33:22.339Z,100705.03
2022-09-17T14:36:20.842Z,100707.44
2022-09-17T14:39:23.382Z,100698.81
2022-09-17T14:42:27.847Z,100707.91
2022-09-17T14:45:31.852Z,100721.59
2022-09-17T14:48:30.302Z,100728.00
2022-09-17T14:51:29.085Z,100729.41
2022-09-17T14:54:28.250Z,100735.03
2022-09-17T14:57:28.439Z,100726.91
2022-09-17T15:00:32.758Z,100730.94
2022-09-17T15:03:29.261Z,100735.09
2022-09-17T15:06:26.505Z,100731.41
2022-09-17T15:09:25.897Z,100727.34
2022-09-17T15:12:27.435Z,100735.31
2022-09-17T15:15:26.359Z,100732.53
2022-09-17T15:18:29.610Z,100744.66
2022-09-17T15:21:32.549Z,100743.91
2022-09-17T15:24:48.224Z,100744.72
2022-09-17T15:27:45.875Z,100751.44
2022-09-17T15:30:43.209Z,100766.34
2022-09-17T15:33:40.582Z,100758.72
2022-09-17T15:36:37.653Z,100748.19
2022-09-17T15:39:39.983Z,100752.25
2022-09-17T15:42:37.715Z,100752.72
2022-09-17T15:45:39.265Z,100740.25
2022-09-17T15:48:38.574Z,100751.69
2022-09-17T15:51:36.108Z,100741.19
2022-09-17T15:54:33.788Z,100741.84
2022-09-17T15:57:30.666Z,100750.81
2022-09-17T16:00:27.395Z,100745.50
2022-09-17T16:03:39.789Z,100758.94
2022-09-17T16:06:37.882Z,100749.19
2022-09-17T16:09:49.073Z,100763.97
2022-09-17T16:12:49.377Z,100757.19
2022-09-17T16:15:48.376Z,100761.53
2022-09-17T16:18:45.777Z,100768.09
2022-09-17T16:21:42.645Z,100763.91
2022-09-17T16:24:39.623Z,100774.78
2022-09-17T16:27:48.146Z,100779.38
2022-09-17T16:30:47.907Z,100780.22
2022-09-17T16:33:45.656Z,100802.03
2022-09-17T16:36:42.609Z,100794.56
2022-09-17T16:39:39.800Z,100801.78
2022-09-17T16:42:36.845Z,100806.72
2022-09-17T16:45:34.972Z,100807.94
2022-09-17T16:48:32.993Z,100808.28
2022-09-17T16:51:30.616Z,100814.84
2022-09-17T16:54:27.805Z,100814.63
2022-09-17T16:57:24.519Z,100810.78
2022-09-17T17:00:22.638Z,100815.94
2022-09-17T17:03:19.444Z,100810.78
2022-09-17T17:06:17.064Z,100813.63
2022-09-17T17:09:14.691Z,100814.78
2022-09-17T17:12:12.029Z,100827.56
2022-09-17T17:15:10.152Z,100825.13
2022-09-17T17:18:07.566Z,100833.44
2022-09-17T17:21:11.553Z,100835.38
2022-09-17T17:24:08.724Z,100847.19
2022-09-17T17:27:05.772Z,100844.03
2022-09-17T17:30:06.575Z,100841.69
2022-09-17T17:33:04.173Z,100854.81
2022-09-17T17:36:07.955Z,100853.00
2022-09-17T17:39:05.729Z,100868.94
2022-09-17T17:42:02.637Z,100860.53
2022-09-17T17:44:59.772Z,100856.63
2022-09-17T17:47:56.872Z,100875.03
2022-09-17T17:50:56.754Z,100873.34
2022-09-17T17:53:54.775Z,100873.47
2022-09-17T17:56:51.743Z,100884.94
2022-09-17T17:59:49.778Z,100888.28
2022-09-17T18:02:46.977Z,100890.28
2022-09-17T18:05:44.531Z,100889.28
2022-09-17T18:08:42.979Z,100893.94
2022-09-17T18:11:40.611Z,100895.72
2022-09-17T18:14:37.548Z,100894.78
2022-09-17T18:17:36.377Z,100899.00
2022-09-17T18:20:33.464Z,100907.81
2022-09-17T18:23:30.983Z,100920.06
2022-09-17T18:26:29.076Z,100925.19
2022-09-17T18:29:26.764Z,100931.03
2022-09-17T18:32:23.773Z,100928.78
2022-09-17T18:35:23.038Z,100926.16
2022-09-17T18:38:20.708Z,100930.06
2022-09-17T18:41:17.336Z,100938.28
2022-09-17T18:44:14.756Z,100935.31
2022-09-17T18:47:11.466Z,100934.19
2022-09-17T18:50:08.784Z,100936.28
2022-09-17T18:53:06.064Z,100934.00
2022-09-17T18:56:25.014Z,100950.56
2022-09-17T18:59:22.564Z,100948.56
2022-09-17T19:02:19.590Z,100952.13
2022-09-17T19:05:17.242Z,100956.28
2022-09-17T19:08:20.784Z,100963.88
2022-09-17T19:11:17.794Z,100959.53
2022-09-17T19:14:15.466Z,100967.38
2022-09-17T19:17:12.450Z,100955.25
2022-09-17T19:20:09.634Z,100975.22
2022-09-17T19:23:06.565Z,100973.13
2022-09-17T19:26:11.389Z,100977.00
2022-09-17T19:29:11.531Z,100981.81
2022-09-17T19:32:08.716Z,100972.75
2022-09-17T19:35:07.302Z,100976.06
2022-09-17T19:38:04.864Z,100982.50
2022-09-17T19:41:12.099Z,100991.75
2022-09-17T19:44:09.833Z,100976.81
2022-09-17T19:47:06.978Z,100980.50
2022-09-17T19:50:03.838Z,100974.94
2022-09-17T19:53:00.751Z,100975.59
2022-09-17T19:55:57.682Z,100987.72
2022-09-17T19:58:54.767Z,100976.75
2022-09-17T20:01:51.645Z,100974.09
2022-09-17T20:04:48.666Z,100983.44
2022-09-17T20:07:45.915Z,100978.84
2022-09-17T20:10:42.813Z,100980.50
2022-09-17T20:13:39.860Z,100970.75
2022-09-17T20:16:38.538Z,100980.22
2022-09-17T20:19:35.554Z,100969.53
2022-09-17T20:22:33.069Z,100977.03
2022-09-17T20:25:30.856Z,100978.59
2022-09-17T20:28:28.214Z,100978.34
2022-09-17T20:31:27.488Z,100978.59
2022-09-17T20:34:24.705Z,100979.41
2022-09-17T20:37:55.403Z,100967.50
2022-09-17T20:40:38.882Z,100973.91
2022-09-17T20:43:39.429Z,100975.63
2022-09-17T20:46:36.939Z,100979.25
2022-09-17T20:49:33.787Z,100982.72
2022-09-17T20:52:30.924Z,100982.22
2022-09-17T20:55:27.742Z,100981.72
2022-09-17T20:58:25.935Z,100984.56
2022-09-17T21:01:24.310Z,100989.31
2022-09-17T21:04:22.088Z,100990.16
2022-09-17T21:07:20.090Z,100985.53
2022-09-17T21:10:17.682Z,100985.00
2022-09-17T21:13:14.577Z,100983.00
2022-09-17T21:16:12.518Z,100991.84
2022-09-17T21:19:11.040Z,100995.50
2022-09-17T21:22:07.776Z,100990.91
2022-09-17T21:25:05.011Z,100997.88
2022-09-17T21:28:01.836Z,100986.81
2022-09-17T21:31:03.797Z,100995.84
2022-09-17T21:34:04.898Z,100992.22
2022-09-17T21:37:04.963Z,100989.75
2022-09-17T21:40:01.824Z,100980.44
2022-09-17T21:42:58.928Z,100982.44
2022-09-17T21:45:59.636Z,100982.06
2022-09-17T21:49:00.057Z,100990.81
2022-09-17T21:51:57.620Z,100995.56
2022-09-17T21:54:54.593Z,100995.56
2022-09-17T21:57:51.577Z,100988.28
2022-09-17T22:00:49.518Z,100980.16
2022-09-17T22:03:46.803Z,100994.38
2022-09-17T22:06:44.275Z,100992.75
2022-09-17T22:09:41.718Z,100990.38
2022-09-17T22:12:41.249Z,100988.34
2022-09-17T22:15:38.839Z,100992.84
2022-09-17T22:18:36.926Z,100988.72
2022-09-17T22:21:36.056Z,100981.19
2022-09-17T22:24:32.935Z,100987.03
2022-09-17T22:27:29.738Z,100993.06
2022-09-17T22:30:27.026Z,100993.59
2022-09-17T22:33:23.996Z,100989.25
2022-09-17T22:36:23.143Z,100993.75
2022-09-17T22:39:22.834Z,100991.09
2022-09-17T22:42:19.798Z,100990.13
2022-09-17T22:45:17.835Z,100993.75
2022-09-17T22:48:14.510Z,100999.34
2022-09-17T22:51:11.985Z,100990.59
2022-09-17T22:54:11.243Z,100981.91
2022-09-17T22:57:08.942Z,100992.84
2022-09-17T23:00:07.549Z,100985.00
2022-09-17T23:03:04.793Z,100984.06
2022-09-17T23:06:02.431Z,100987.94
2022-09-17T23:09:00.239Z,100988.72
2022-09-17T23:11:57.781Z,100987.19
2022-09-17T23:14:54.809Z,100993.06
2022-09-17T23:17:52.097Z,100994.47
2022-09-17T23:20:59.473Z,100986.25
2022-09-17T23:23:56.493Z,100984.78
2022-09-17T23:26:53.908Z,100979.03
2022-09-17T23:29:50.812Z,100983.41
2022-09-17T23:32:47.700Z,100989.59
2022-09-17T23:35:44.778Z,100980.66
2022-09-17T23:38:43.075Z,100984.31
2022-09-17T23:41:43.111Z,100993.22
2022-09-17T23:44:40.108Z,100992.75
2022-09-17T23:47:36.802Z,100980.84
2022-09-17T23:50:33.839Z,100981.88
2022-09-17T23:53:31.383Z,100988.81
2022-09-17T23:56:28.985Z,100989.13
2022-09-17T23:59:25.847Z,100987.03
